• Join FlightAware (Why Join?)
  • Login
  • US Flag 
09:54AM EDT


 

Airport Tracker/Info


-or-


 

Live Flight TrackerFlight Track Log ✈ N2145X ✈ 05-Jul-2013 ✈ KBID - KHWV

Flight Track Log - Related Links

Times and Time Zones

All times are in EDT time to prevent confusion due to time zone crossing. See the N2145X flight status page for this flight to view local times or setup timezone preferences in your user account.

Time Position Orientation Groundspeed Altitude Reporting Facility
EDT Latitude Longitude Course Direction KTS MPH feet Rate Location/Type
03:12PM 41.1433 -71.6958 251° West 107 123 2,900  Level Boston Center
03:13PM 41.1247 -71.7319 236° Southwest 113 130 3,700 720 Climbing Boston Center
03:14PM 41.1022 -71.7625 226° Southwest 117 135 4,300 360 Climbing Boston Center
03:15PM 41.0794 -71.8067 236° Southwest 145 167 4,500 60 Climbing Boston Center
03:17PM 41.1102 -71.7983 251° West  Level Estimated
03:17PM 41.0333 -71.9000 237° Southwest 146 168 4,500  Level New York TRACON
03:18PM 41.0167 -71.9500 246° West 140 161 4,500  Level New York TRACON
03:19PM 41.0000 -71.9833 236° Southwest 137 158 4,500  Level New York TRACON
03:20PM 40.9833 -72.0333 246° West 138 159 4,500  Level New York TRACON
03:21PM 40.9667 -72.0833 246° West 138 159 4,500  Level New York TRACON
03:22PM 40.9667 -72.1167 270° West 134 154 4,500  Level New York TRACON
03:23PM 40.9333 -72.1667 229° Southwest 136 157 4,500  Level New York TRACON
03:24PM 40.9167 -72.2167 246° West 138 159 4,500  Level New York TRACON
03:25PM 40.9000 -72.2500 237° Southwest 136 157 4,500  Level New York TRACON
03:26PM 40.8833 -72.2833 237° Southwest 163 188 4,600  Climbing New York TRACON
03:27PM 40.8833 -72.2333 90° East 183 211 4,500 -60 Descending New York TRACON
03:28PM 40.9167 -72.2000 37° Northeast 201 231 4,500  Level New York TRACON
03:29PM 40.9167 -72.2333 270° West 135 155 4,500  Level New York TRACON
03:30PM 40.9000 -72.2833 246° West 135 155 4,500  Level New York TRACON
03:31PM 40.8833 -72.3333 246° West 138 159 4,500  Level New York TRACON
03:32PM 40.8667 -72.3667 237° Southwest 134 154 4,500  Level New York TRACON
03:33PM 40.8500 -72.4167 246° West 137 158 4,500  Level New York TRACON
03:34PM 40.8333 -72.4667 246° West 137 158 4,500  Level New York TRACON
03:35PM 40.8333 -72.5167 270° West 135 155 4,500  Level New York TRACON
03:36PM 40.8167 -72.5667 246° West 136 157 4,500  Level New York TRACON
03:37PM 40.8000 -72.6000 237° Southwest 135 155 4,500 -240 Level New York TRACON
03:38PM 40.7833 -72.6500 246° West 137 158 4,100 -720 Descending New York TRACON
03:39PM 40.7667 -72.7000 246° West 140 161 3,100 -1,020 Descending New York TRACON
03:41PM 40.7816 -72.7451 258° West  Level Estimated
03:48PM 40.8167 -72.8667 258° West  Level FlightAware Approximate
03:49PM 40.8219 -72.8669 258° West  Level Estimated
03:50PM 40.8167 -72.8667 258° West  Level FlightAware Approximate
03:51PM 40.8219 -72.8669 258° West  Level Estimated
03:52PM 40.8167 -72.8667 258° West  Level FlightAware Approximate
03:53PM 40.8219 -72.8669 258° West  Level Estimated
03:54PM 40.8167 -72.8667 258° West  Level FlightAware Approximate
03:55PM 40.8219 -72.8669 258° West  Level Estimated
03:56PM 40.8167 -72.8667 258° West  Level FlightAware Approximate
03:57PM 40.8219 -72.8669 258° West  Level Estimated
03:58PM 40.8167 -72.8667 258° West  Level FlightAware Approximate
03:59PM 40.8219 -72.8669 258° West  Level Estimated
04:00PM 40.8167 -72.8667 258° West  Level FlightAware Approximate